Airfield :
LOGIN :

Register | Disclaimer

   EN    FR    IT 

 










Legend :    VFR   Marginal VFR   IFR   Intensive IFR   Very Intensive IFR
Visi :
Ceiling :
>= 8 km
>= 3000ft
5 to 8 km
1000 to 3000 ft
1500m to 5 km
500 to 1000 ft
800 to 1500m
200 to 500 ft
< 800m
< 200 ft
Symbols :   Thunderstorms  Fog  Heavy snow  Heavy precipitations  Wind > 20 kt
SIGMETs :     Misc.  Thunderstorms  Icing  Turbulence  Mountain Waves  Volcanic Ashes






- Airport Elevation : 0 ft


ENOA - Oseberg A Platform

CURRENT METAR :
  • 230450Z 30006KT 260V320 9999 FEW040 07/00 Q1016 W///S6

EXPIRED METARs :
  • 230350Z 32008KT 9999 FEW040 07/00 Q1016 W///S6
  • 230320Z 32010KT 9999 FEW035 08/00 Q1016 W///S6
  • 230250Z 32010KT 9999 FEW030 07/01 Q1016 W///S6
  • 230220Z 33013KT 9999 FEW040 08/00 Q1016 W///S6

TAF ENOA
Valid from the 23 at 03:00 until the 24 at 03:00 UTC


2303/2403 32012KT 9999 -SHRA FEW015TCU SCT030
BECMG 2304/2306 26008KT
BECMG 2309/2311 19020KT
BECMG 2312/2314 19030KT
BECMG 2316/2318 19040KT
BECMG 2320/2322 BKN012
TEMPO 2320/2403 4000 -RA BR BKN008



MET'MAP, your aeronautical weather chart ! - Copyright ORBIFLY December 2007 - Disclaimer

ORBIFLY MET'MAP TEAM :

Programming & Development : Alexandra Zaïnal
Concept & original design : Baudouin d'Aumeries
Assistance for programming : Marc-Olivier Méhu
Technical & hardware support : Manuel Goepfert

Contact : metmap@orbifly.com




SOURCES & CREDITS :

   NOAA